createdAt,value
2023-09-24T00:01:07.353Z,16.98
2023-09-24T00:03:35.208Z,16.93
2023-09-24T00:06:10.766Z,16.88
2023-09-24T00:08:38.789Z,16.83
2023-09-24T00:11:06.828Z,16.90
2023-09-24T00:13:35.933Z,16.70
2023-09-24T00:16:07.231Z,16.66
2023-09-24T00:18:35.664Z,16.75
2023-09-24T00:21:03.897Z,16.82
2023-09-24T00:23:33.091Z,16.64
2023-09-24T00:26:01.764Z,16.53
2023-09-24T00:28:29.886Z,16.35
2023-09-24T00:30:59.472Z,16.53
2023-09-24T00:33:29.048Z,16.56
2023-09-24T00:36:00.492Z,16.46
2023-09-24T00:38:28.445Z,16.42
2023-09-24T00:40:57.486Z,16.40
2023-09-24T00:43:29.754Z,16.27
2023-09-24T00:45:59.125Z,16.53
2023-09-24T00:48:30.221Z,16.49
2023-09-24T00:50:59.403Z,16.69
2023-09-24T00:53:28.634Z,15.79
2023-09-24T00:55:58.499Z,16.22
2023-09-24T00:58:28.338Z,16.33
2023-09-24T01:00:57.185Z,16.11
2023-09-24T01:03:25.505Z,16.24
2023-09-24T01:05:54.170Z,16.14
2023-09-24T01:08:23.459Z,16.00
2023-09-24T01:10:51.996Z,16.20
2023-09-24T01:13:21.538Z,16.09
2023-09-24T01:15:50.635Z,16.09
2023-09-24T01:18:19.067Z,16.25
2023-09-24T01:20:46.935Z,16.16
2023-09-24T01:23:16.967Z,16.20
2023-09-24T01:25:46.212Z,16.21
2023-09-24T01:28:15.262Z,16.18
2023-09-24T01:30:45.089Z,15.80
2023-09-24T01:33:12.999Z,16.17
2023-09-24T01:35:40.821Z,16.09
2023-09-24T01:38:09.093Z,16.06
2023-09-24T01:40:39.022Z,16.35
2023-09-24T01:43:08.830Z,16.31
2023-09-24T01:45:39.854Z,16.23
2023-09-24T01:48:07.970Z,16.27
2023-09-24T01:50:36.529Z,16.39
2023-09-24T01:53:04.291Z,16.34
2023-09-24T01:55:32.424Z,16.04
2023-09-24T01:58:01.867Z,16.15
2023-09-24T02:00:29.569Z,16.30
2023-09-24T02:03:00.679Z,16.10
2023-09-24T02:05:33.555Z,16.23
2023-09-24T02:08:01.409Z,16.21
2023-09-24T02:10:29.098Z,16.10
2023-09-24T02:12:57.111Z,16.12
2023-09-24T02:15:26.318Z,15.82
2023-09-24T02:17:54.404Z,15.88
2023-09-24T02:20:25.233Z,15.76
2023-09-24T02:22:57.812Z,15.71
2023-09-24T02:25:26.087Z,15.99
2023-09-24T02:27:53.819Z,15.64
2023-09-24T02:30:22.723Z,15.70
2023-09-24T02:32:52.128Z,15.71
2023-09-24T02:35:19.924Z,15.99
2023-09-24T02:37:49.648Z,15.98
2023-09-24T02:40:22.627Z,15.89
2023-09-24T02:42:52.683Z,15.80
2023-09-24T02:45:20.912Z,15.86
2023-09-24T02:47:50.781Z,16.00
2023-09-24T02:50:24.068Z,15.75
2023-09-24T02:52:53.394Z,15.80
2023-09-24T02:55:21.583Z,15.53
2023-09-24T02:57:51.530Z,15.68
2023-09-24T03:00:22.303Z,15.60
2023-09-24T03:02:51.018Z,15.48
2023-09-24T03:05:25.496Z,15.45
2023-09-24T03:07:56.901Z,15.59
2023-09-24T03:10:26.030Z,15.55
2023-09-24T03:12:53.818Z,15.71
2023-09-24T03:15:22.129Z,15.69
2023-09-24T03:17:49.894Z,15.73
2023-09-24T03:20:19.176Z,15.66
2023-09-24T03:22:50.334Z,15.14
2023-09-24T03:25:19.037Z,15.17
2023-09-24T03:27:47.033Z,15.50
2023-09-24T03:30:18.395Z,15.43
2023-09-24T03:32:46.669Z,15.56
2023-09-24T03:35:15.299Z,15.25
2023-09-24T03:37:45.062Z,15.40
2023-09-24T03:40:16.224Z,15.70
2023-09-24T03:42:44.349Z,15.56
2023-09-24T03:45:15.117Z,15.30
2023-09-24T03:47:43.398Z,15.03
2023-09-24T03:50:14.591Z,14.95
2023-09-24T03:52:42.501Z,14.99
2023-09-24T03:55:10.884Z,15.00
2023-09-24T03:57:40.443Z,14.89
2023-09-24T04:00:12.284Z,14.91
2023-09-24T04:02:41.520Z,14.85
2023-09-24T04:05:15.110Z,14.54
2023-09-24T04:07:43.339Z,14.89
2023-09-24T04:10:15.246Z,14.66
2023-09-24T04:12:47.464Z,14.75
2023-09-24T04:15:17.037Z,14.87
2023-09-24T04:17:44.782Z,14.58
2023-09-24T04:20:16.541Z,14.89
2023-09-24T04:22:45.972Z,14.78
2023-09-24T04:25:15.753Z,14.66
2023-09-24T04:27:45.359Z,14.35
2023-09-24T04:30:16.639Z,14.69
2023-09-24T04:32:44.754Z,14.48
2023-09-24T04:35:12.529Z,14.73
2023-09-24T04:37:40.533Z,14.27
2023-09-24T04:40:10.641Z,14.41
2023-09-24T04:42:38.530Z,14.41
2023-09-24T04:45:09.145Z,14.10
2023-09-24T04:47:36.982Z,14.39
2023-09-24T04:50:05.125Z,14.15
2023-09-24T04:52:33.036Z,13.68
2023-09-24T04:55:00.881Z,14.01
2023-09-24T04:57:28.525Z,13.86
2023-09-24T04:59:56.227Z,14.00
2023-09-24T05:02:25.366Z,14.17
2023-09-24T05:04:53.769Z,13.95
2023-09-24T05:07:20.813Z,14.05
2023-09-24T05:09:48.674Z,14.19
2023-09-24T05:12:16.337Z,13.96
2023-09-24T05:14:44.233Z,13.67
2023-09-24T05:17:12.006Z,13.85
2023-09-24T05:19:41.115Z,13.64
2023-09-24T05:22:09.871Z,14.16
2023-09-24T05:24:37.832Z,14.15
2023-09-24T05:27:05.644Z,13.99
2023-09-24T05:29:33.587Z,14.26
2023-09-24T05:32:03.308Z,14.35
2023-09-24T05:34:31.356Z,14.61
2023-09-24T05:37:00.623Z,14.70
2023-09-24T05:39:28.447Z,14.42
2023-09-24T05:41:56.834Z,14.55
2023-09-24T05:44:26.184Z,14.48
2023-09-24T05:46:53.876Z,14.73
2023-09-24T05:49:21.555Z,14.71
2023-09-24T05:51:49.227Z,14.91
2023-09-24T05:54:18.379Z,15.01
2023-09-24T05:56:46.087Z,15.04
2023-09-24T05:59:14.519Z,15.40
2023-09-24T06:01:43.309Z,16.71
2023-09-24T06:04:11.278Z,18.17
2023-09-24T06:06:39.188Z,20.04
2023-09-24T06:09:10.287Z,21.30
2023-09-24T06:11:40.762Z,21.85
2023-09-24T06:14:10.837Z,22.76
2023-09-24T06:16:40.864Z,22.25
2023-09-24T06:19:10.793Z,21.76
2023-09-24T06:21:38.982Z,22.59
2023-09-24T06:24:07.714Z,23.94
2023-09-24T06:26:36.360Z,25.79
2023-09-24T06:29:11.621Z,26.23
2023-09-24T06:31:39.979Z,26.40
2023-09-24T06:34:08.188Z,25.22
2023-09-24T06:36:36.069Z,24.68
2023-09-24T06:39:04.064Z,25.69
2023-09-24T06:41:31.868Z,27.45
2023-09-24T06:43:59.571Z,27.24
2023-09-24T06:46:28.618Z,27.30
2023-09-24T06:48:56.446Z,27.00
2023-09-24T06:51:24.292Z,26.50
2023-09-24T06:53:53.354Z,23.10
2023-09-24T06:56:21.248Z,22.23
2023-09-24T06:58:49.394Z,21.52
2023-09-24T07:01:17.154Z,18.79
2023-09-24T07:03:48.924Z,19.27
2023-09-24T07:06:17.493Z,19.11
2023-09-24T07:08:45.741Z,18.93
2023-09-24T07:11:32.553Z,19.00
2023-09-24T07:14:00.644Z,18.70
2023-09-24T07:16:29.493Z,18.12
2023-09-24T07:18:59.181Z,17.98
2023-09-24T07:21:34.279Z,18.33
2023-09-24T07:24:03.937Z,18.79
2023-09-24T07:26:32.156Z,18.21
2023-09-24T07:29:01.259Z,18.56
2023-09-24T07:31:31.145Z,18.55
2023-09-24T07:34:03.444Z,18.67
2023-09-24T07:36:38.161Z,18.84
2023-09-24T07:39:13.045Z,18.76
2023-09-24T07:41:41.017Z,19.22
2023-09-24T07:44:08.796Z,18.77
2023-09-24T07:46:36.676Z,18.71
2023-09-24T07:49:07.559Z,21.19
2023-09-24T07:51:35.558Z,24.12
2023-09-24T07:54:03.346Z,25.30
2023-09-24T07:56:31.566Z,27.94
2023-09-24T07:58:59.942Z,27.03
2023-09-24T08:01:28.318Z,28.94
2023-09-24T08:03:56.301Z,29.21
2023-09-24T08:06:25.711Z,29.24
2023-09-24T08:09:02.663Z,28.66
2023-09-24T08:11:41.182Z,30.47
2023-09-24T08:14:08.925Z,31.41
2023-09-24T08:16:36.931Z,32.06
2023-09-24T08:19:04.658Z,32.68
2023-09-24T08:21:33.795Z,33.33
2023-09-24T08:24:01.579Z,33.07
2023-09-24T08:26:29.360Z,30.26
2023-09-24T08:28:57.062Z,29.20
2023-09-24T08:31:27.017Z,28.43
2023-09-24T08:33:55.021Z,27.32
2023-09-24T08:36:25.211Z,30.19
2023-09-24T08:38:54.554Z,31.62
2023-09-24T08:41:22.288Z,30.95
2023-09-24T08:43:51.103Z,31.78
2023-09-24T08:46:20.548Z,31.94
2023-09-24T08:48:49.186Z,31.18
2023-09-24T08:51:19.226Z,32.18
2023-09-24T08:53:47.199Z,31.31
2023-09-24T08:56:17.833Z,32.00
2023-09-24T08:58:45.761Z,30.90
2023-09-24T09:01:13.714Z,29.18
2023-09-24T09:03:42.512Z,27.89
2023-09-24T09:06:10.683Z,26.59
2023-09-24T09:08:52.078Z,25.43
2023-09-24T09:11:22.244Z,24.51
2023-09-24T09:13:51.099Z,23.63
2023-09-24T09:16:21.959Z,22.79
2023-09-24T09:19:01.912Z,23.17
2023-09-24T09:21:30.652Z,22.57
2023-09-24T09:23:58.357Z,22.64
2023-09-24T09:26:35.363Z,22.29
2023-09-24T09:29:06.550Z,21.51
2023-09-24T09:34:16.854Z,20.59
2023-09-24T09:36:45.037Z,19.29
2023-09-24T09:39:12.979Z,20.13
2023-09-24T09:41:43.938Z,20.94
2023-09-24T09:44:15.675Z,21.30
2023-09-24T09:46:46.955Z,20.90
2023-09-24T09:49:18.951Z,20.91
2023-09-24T09:51:48.215Z,20.02
2023-09-24T09:54:17.243Z,19.10
2023-09-24T09:56:46.445Z,19.66
2023-09-24T09:59:16.437Z,19.49
2023-09-24T10:01:44.355Z,19.83
2023-09-24T10:04:12.388Z,20.31
2023-09-24T10:06:41.501Z,19.47
2023-09-24T10:09:35.873Z,19.47
2023-09-24T10:12:08.576Z,19.40
2023-09-24T10:14:38.187Z,18.30
2023-09-24T10:17:25.717Z,18.39
2023-09-24T10:19:58.259Z,18.97
2023-09-24T10:22:28.908Z,19.80
2023-09-24T10:24:57.051Z,18.60
2023-09-24T10:27:31.736Z,18.89
2023-09-24T10:30:12.183Z,18.65
2023-09-24T10:32:53.127Z,18.81
2023-09-24T10:35:21.777Z,18.80
2023-09-24T10:38:02.839Z,18.97
2023-09-24T10:40:31.074Z,19.31
2023-09-24T10:43:23.010Z,19.19
2023-09-24T10:45:51.075Z,19.46
2023-09-24T10:48:23.191Z,18.88
2023-09-24T10:50:57.393Z,18.95
2023-09-24T10:53:25.097Z,19.58
2023-09-24T10:56:05.558Z,19.83
2023-09-24T10:58:40.212Z,19.98
2023-09-24T11:01:07.973Z,19.36
2023-09-24T11:03:37.115Z,18.74
2023-09-24T11:06:05.590Z,19.02
2023-09-24T11:08:33.305Z,18.93
2023-09-24T11:11:01.038Z,18.36
2023-09-24T11:13:28.732Z,18.54
2023-09-24T11:15:58.102Z,19.05
2023-09-24T11:18:27.441Z,18.19
2023-09-24T11:20:55.430Z,18.68
2023-09-24T11:23:23.427Z,19.03
2023-09-24T11:25:52.953Z,18.58
2023-09-24T11:28:30.487Z,19.26
2023-09-24T11:30:59.627Z,18.94
2023-09-24T11:33:27.403Z,19.40
2023-09-24T11:35:57.362Z,19.04
2023-09-24T11:38:29.697Z,19.09
2023-09-24T11:41:07.792Z,19.69
2023-09-24T11:43:36.465Z,19.19
2023-09-24T11:46:16.569Z,19.47
2023-09-24T11:48:45.725Z,20.41
2023-09-24T11:51:13.672Z,20.58
2023-09-24T11:53:42.172Z,20.82
2023-09-24T11:56:09.883Z,20.56
2023-09-24T11:58:39.009Z,21.10
2023-09-24T12:01:10.662Z,21.15
2023-09-24T12:03:38.891Z,21.54
2023-09-24T12:06:07.635Z,20.81
2023-09-24T12:08:35.527Z,20.88
2023-09-24T12:11:03.320Z,20.39
2023-09-24T12:13:32.646Z,20.86
2023-09-24T12:16:00.405Z,20.78
2023-09-24T12:18:29.641Z,21.47
2023-09-24T12:20:58.374Z,21.57
2023-09-24T12:23:26.899Z,22.17
2023-09-24T12:25:55.001Z,21.09
2023-09-24T12:28:22.686Z,21.69
2023-09-24T12:30:50.426Z,20.94
2023-09-24T12:33:18.243Z,20.89
2023-09-24T12:35:47.351Z,20.66
2023-09-24T12:38:15.136Z,20.80
2023-09-24T12:40:43.020Z,20.99
2023-09-24T12:43:10.812Z,20.94
2023-09-24T12:45:38.543Z,21.36
2023-09-24T12:48:09.307Z,21.62
2023-09-24T12:50:37.365Z,21.75
2023-09-24T12:53:06.652Z,21.13
2023-09-24T12:55:34.356Z,20.93
2023-09-24T12:58:02.038Z,20.72
2023-09-24T13:00:29.887Z,21.63
2023-09-24T13:02:57.694Z,21.91
2023-09-24T13:05:26.119Z,22.10
2023-09-24T13:07:54.112Z,22.04
2023-09-24T13:10:23.974Z,22.08
2023-09-24T13:12:51.635Z,21.59
2023-09-24T13:15:19.452Z,20.78
2023-09-24T13:17:47.182Z,20.65
2023-09-24T13:20:15.592Z,20.48
2023-09-24T13:22:43.382Z,21.45
2023-09-24T13:25:13.744Z,21.23
2023-09-24T13:27:43.944Z,21.45
2023-09-24T13:30:12.204Z,22.29
2023-09-24T13:32:40.865Z,21.82
2023-09-24T13:35:09.931Z,21.81
2023-09-24T13:37:38.935Z,22.01
2023-09-24T13:40:13.958Z,21.66
2023-09-24T13:42:48.989Z,21.85
2023-09-24T13:45:16.980Z,21.10
2023-09-24T13:47:44.835Z,22.09
2023-09-24T13:50:12.700Z,21.97
2023-09-24T13:52:40.470Z,22.29
2023-09-24T13:55:09.567Z,22.16
2023-09-24T13:57:37.990Z,22.48
2023-09-24T14:00:09.377Z,22.25
2023-09-24T14:02:37.167Z,21.91
2023-09-24T14:05:06.059Z,22.52
2023-09-24T14:07:33.740Z,22.51
2023-09-24T14:10:19.082Z,22.10
2023-09-24T14:12:46.927Z,21.74
2023-09-24T14:15:16.394Z,22.16
2023-09-24T14:17:48.215Z,21.35
2023-09-24T14:20:20.645Z,21.62
2023-09-24T14:22:48.586Z,21.71
2023-09-24T14:25:16.429Z,21.53
2023-09-24T14:27:44.812Z,21.87
2023-09-24T14:30:13.780Z,21.94
2023-09-24T14:32:42.879Z,22.40
2023-09-24T14:35:10.842Z,22.31
2023-09-24T14:37:38.641Z,22.58
2023-09-24T14:40:07.613Z,22.63
2023-09-24T14:42:35.502Z,21.86
2023-09-24T14:45:03.256Z,22.08
2023-09-24T14:47:31.855Z,22.93
2023-09-24T14:50:01.526Z,22.66
2023-09-24T14:52:30.742Z,21.46
2023-09-24T14:54:59.606Z,21.74
2023-09-24T14:57:27.315Z,21.58
2023-09-24T14:59:55.063Z,22.15
2023-09-24T15:02:22.833Z,22.34
2023-09-24T15:04:52.035Z,22.57
2023-09-24T15:07:21.124Z,22.34
2023-09-24T15:09:48.744Z,22.08
2023-09-24T15:12:16.639Z,22.17
2023-09-24T15:14:44.614Z,21.27
2023-09-24T15:17:12.388Z,21.39
2023-09-24T15:19:40.066Z,22.20
2023-09-24T15:22:07.764Z,21.37
2023-09-24T15:24:36.784Z,21.64
2023-09-24T15:27:04.665Z,21.79
2023-09-24T15:29:32.581Z,21.68
2023-09-24T15:32:00.286Z,21.90
2023-09-24T15:34:30.677Z,22.33
2023-09-24T15:36:58.413Z,22.31
2023-09-24T15:39:26.154Z,21.89
2023-09-24T15:41:55.258Z,22.23
2023-09-24T15:44:22.950Z,22.16
2023-09-24T15:46:50.657Z,22.29
2023-09-24T15:49:18.404Z,22.14
2023-09-24T15:51:46.108Z,21.77
2023-09-24T15:54:13.948Z,22.14
2023-09-24T15:56:41.657Z,21.56
2023-09-24T15:59:10.673Z,21.87
2023-09-24T16:01:38.709Z,22.12
2023-09-24T16:04:06.511Z,21.85
2023-09-24T16:06:34.239Z,22.03
2023-09-24T16:09:01.995Z,21.84
2023-09-24T16:11:29.702Z,21.12
2023-09-24T16:13:57.374Z,21.68
2023-09-24T16:16:27.164Z,21.83
2023-09-24T16:18:55.105Z,21.23
2023-09-24T16:21:22.878Z,21.58
2023-09-24T16:23:51.161Z,21.32
2023-09-24T16:26:20.293Z,21.19
2023-09-24T16:28:47.958Z,21.14
2023-09-24T16:31:15.708Z,21.17
2023-09-24T16:33:44.790Z,21.79
2023-09-24T16:36:14.112Z,21.99
2023-09-24T16:38:41.918Z,21.97
2023-09-24T16:41:10.115Z,21.86
2023-09-24T16:43:37.790Z,21.94
2023-09-24T16:46:05.487Z,21.89
2023-09-24T16:48:33.393Z,21.45
2023-09-24T16:51:04.449Z,21.26
2023-09-24T16:53:32.637Z,21.29
2023-09-24T16:56:00.423Z,21.23
2023-09-24T16:58:28.091Z,21.20
2023-09-24T17:00:55.778Z,21.10
2023-09-24T17:03:23.675Z,20.91
2023-09-24T17:05:51.503Z,20.59
2023-09-24T17:08:20.537Z,20.10
2023-09-24T17:10:49.502Z,19.89
2023-09-24T17:13:17.254Z,19.90
2023-09-24T17:15:47.149Z,19.47
2023-09-24T17:18:15.106Z,19.19
2023-09-24T17:20:48.344Z,19.35
2023-09-24T17:23:16.407Z,19.30
2023-09-24T17:25:45.480Z,18.99
2023-09-24T17:28:13.207Z,19.16
2023-09-24T17:30:40.903Z,18.96
2023-09-24T17:33:08.650Z,18.81
2023-09-24T17:35:36.704Z,18.35
2023-09-24T17:38:04.687Z,18.50
2023-09-24T17:40:32.397Z,18.36
2023-09-24T17:43:01.477Z,18.77
2023-09-24T17:45:30.569Z,18.86
2023-09-24T17:47:58.416Z,18.26
2023-09-24T17:50:26.146Z,18.07
2023-09-24T17:52:53.810Z,17.60
2023-09-24T17:55:21.506Z,17.97
2023-09-24T17:57:49.699Z,18.03
2023-09-24T18:00:19.491Z,18.19
2023-09-24T18:02:47.286Z,18.22
2023-09-24T18:05:16.310Z,17.95
2023-09-24T18:07:43.969Z,18.10
2023-09-24T18:10:11.906Z,18.02
2023-09-24T18:12:39.576Z,17.93
2023-09-24T18:15:08.879Z,17.65
2023-09-24T18:17:37.951Z,17.47
2023-09-24T18:20:06.559Z,17.51
2023-09-24T18:22:34.200Z,17.67
2023-09-24T18:25:01.876Z,17.52
2023-09-24T18:27:34.227Z,17.58
2023-09-24T18:30:02.339Z,17.41
2023-09-24T18:32:30.171Z,17.41
2023-09-24T18:34:59.267Z,17.47
2023-09-24T18:37:27.281Z,17.15
2023-09-24T18:39:55.622Z,17.20
2023-09-24T18:42:24.025Z,17.39
2023-09-24T18:44:53.037Z,17.24
2023-09-24T18:47:21.943Z,17.44
2023-09-24T18:49:49.606Z,17.25
2023-09-24T18:52:18.618Z,16.72
2023-09-24T18:54:46.324Z,17.00
2023-09-24T18:57:14.862Z,17.18
2023-09-24T18:59:42.614Z,16.98
2023-09-24T19:02:10.295Z,17.03
2023-09-24T19:04:38.210Z,17.08
2023-09-24T19:07:07.663Z,16.90
2023-09-24T19:09:36.814Z,16.92
2023-09-24T19:12:04.765Z,16.81
2023-09-24T19:14:32.544Z,16.43
2023-09-24T19:17:00.217Z,16.48
2023-09-24T19:19:27.943Z,16.14
2023-09-24T19:21:55.858Z,16.04
2023-09-24T19:24:23.781Z,15.64
2023-09-24T19:26:55.269Z,15.76
2023-09-24T19:29:23.384Z,15.94
2023-09-24T19:31:52.313Z,16.09
2023-09-24T19:34:20.111Z,16.29
2023-09-24T19:36:47.778Z,16.54
2023-09-24T19:39:15.623Z,16.62
2023-09-24T19:41:43.559Z,16.64
2023-09-24T19:44:12.693Z,16.88
2023-09-24T19:46:40.743Z,16.87
2023-09-24T19:49:08.736Z,16.63
2023-09-24T19:51:36.545Z,16.53
2023-09-24T19:54:04.283Z,16.64
2023-09-24T19:56:32.007Z,16.56
2023-09-24T19:59:01.161Z,16.78
2023-09-24T20:01:30.277Z,16.79
2023-09-24T20:04:00.083Z,16.57
2023-09-24T20:06:28.056Z,16.66
2023-09-24T20:08:59.641Z,16.44
2023-09-24T20:11:27.504Z,16.48
2023-09-24T20:13:57.535Z,16.56
2023-09-24T20:16:25.284Z,16.51
2023-09-24T20:18:54.447Z,16.64
2023-09-24T20:21:22.199Z,16.94
2023-09-24T20:23:49.934Z,16.69
2023-09-24T20:26:17.784Z,16.51
2023-09-24T20:28:53.304Z,16.42
2023-09-24T20:31:22.273Z,16.31
2023-09-24T20:34:00.505Z,16.29
2023-09-24T20:36:31.956Z,16.58
2023-09-24T20:39:04.471Z,16.54
2023-09-24T20:41:33.234Z,16.28
2023-09-24T20:44:00.937Z,16.27
2023-09-24T20:46:34.130Z,16.53
2023-09-24T20:49:02.137Z,16.44
2023-09-24T20:51:31.240Z,16.71
2023-09-24T20:53:59.145Z,17.02
2023-09-24T20:56:27.025Z,16.68
2023-09-24T20:58:58.054Z,16.60
2023-09-24T21:01:26.396Z,16.73
2023-09-24T21:03:54.187Z,16.66
2023-09-24T21:06:21.977Z,16.83
2023-09-24T21:08:51.300Z,16.53
2023-09-24T21:11:19.187Z,16.82
2023-09-24T21:13:47.089Z,16.92
2023-09-24T21:16:14.881Z,16.91
2023-09-24T21:18:42.666Z,16.75
2023-09-24T21:21:10.613Z,16.58
2023-09-24T21:23:39.060Z,16.81
2023-09-24T21:26:08.496Z,16.94
2023-09-24T21:28:36.312Z,16.93
2023-09-24T21:31:05.404Z,16.79
2023-09-24T21:33:33.563Z,16.71
2023-09-24T21:36:01.729Z,16.23
2023-09-24T21:38:29.420Z,16.58
2023-09-24T21:40:58.274Z,16.69
2023-09-24T21:43:31.502Z,16.66
2023-09-24T21:46:00.589Z,16.75
2023-09-24T21:48:28.404Z,16.70
2023-09-24T21:50:56.656Z,16.23
2023-09-24T21:53:24.437Z,16.38
2023-09-24T21:55:52.440Z,16.30
2023-09-24T21:58:20.562Z,16.29
2023-09-24T22:00:49.585Z,16.42
2023-09-24T22:03:18.863Z,16.30
2023-09-24T22:05:47.115Z,16.26
2023-09-24T22:08:14.909Z,16.24
2023-09-24T22:10:42.602Z,16.42
2023-09-24T22:13:10.285Z,16.17
2023-09-24T22:15:38.014Z,16.12
2023-09-24T22:18:07.506Z,16.15
2023-09-24T22:20:35.257Z,15.94
2023-09-24T22:23:03.092Z,16.30
2023-09-24T22:25:31.834Z,16.17
2023-09-24T22:27:59.607Z,15.95
2023-09-24T22:30:27.606Z,15.93
2023-09-24T22:32:55.451Z,15.91
2023-09-24T22:35:24.918Z,15.89
2023-09-24T22:37:52.612Z,15.82
2023-09-24T22:40:20.402Z,16.02
2023-09-24T22:42:48.069Z,16.11
2023-09-24T22:45:18.760Z,16.06
2023-09-24T22:47:46.961Z,16.00
2023-09-24T22:50:15.634Z,16.14
2023-09-24T22:52:47.273Z,16.07
2023-09-24T22:55:17.219Z,16.07
2023-09-24T22:57:45.680Z,16.37
2023-09-24T23:00:17.390Z,16.21
2023-09-24T23:02:45.355Z,15.86
2023-09-24T23:05:14.498Z,16.05
2023-09-24T23:07:42.685Z,16.10
2023-09-24T23:10:12.572Z,16.31
2023-09-24T23:12:40.473Z,16.24
2023-09-24T23:15:09.328Z,16.34
2023-09-24T23:17:37.029Z,16.22
2023-09-24T23:20:05.559Z,16.11
2023-09-24T23:22:33.324Z,16.55
2023-09-24T23:25:00.993Z,16.64
2023-09-24T23:27:31.158Z,16.70
2023-09-24T23:29:59.194Z,16.38
2023-09-24T23:32:29.857Z,16.67
2023-09-24T23:34:57.634Z,16.47
2023-09-24T23:37:25.290Z,16.63
2023-09-24T23:39:53.151Z,16.60
2023-09-24T23:42:21.437Z,16.24
2023-09-24T23:44:50.500Z,16.26
2023-09-24T23:47:18.452Z,16.35
2023-09-24T23:49:46.291Z,16.27
2023-09-24T23:52:14.042Z,16.17
2023-09-24T23:54:41.788Z,16.10
2023-09-24T23:57:09.524Z,16.26
2023-09-24T23:59:37.225Z,16.08
